Terminal Aerodrome Forecast
Issued by NWS Charleston, WV

Current Version | Previous Version | Text Only | Print | Product List | Glossary Off
Versions: 1 2 3 4 5 6 7 8 9 10 11 12 13 14 15 16 17 18 19 20 21 22 23 24 25 26 27

000
FTUS41 KRLX 300900 AAA
TAFCRW
TAF AMD
KCRW 300900Z 3009/0106 VRB03KT 5SM BR BKN025
     FM301400 24004KT P6SM BKN050
     FM301600 23007KT P6SM SCT090
     FM301800 24007KT P6SM VCTS BKN050CB
     FM010200 VRB04KT P6SM BKN040=

USA.gov is the U.S. government's official web portal to all federal, state and local government web resources and services.